createdAt,value
2018-08-20T00:01:21.598Z,98070.33
2018-08-20T00:03:50.771Z,98070.84
2018-08-20T00:06:19.684Z,98069.25
2018-08-20T00:08:48.418Z,98069.61
2018-08-20T00:11:17.186Z,98062.83
2018-08-20T00:13:46.452Z,98064.08
2018-08-20T00:16:15.746Z,98062.80
2018-08-20T00:18:45.804Z,98063.59
2018-08-20T00:21:14.425Z,98064.74
2018-08-20T00:23:43.324Z,98062.44
2018-08-20T00:26:12.664Z,98052.05
2018-08-20T00:28:41.816Z,98061.38
2018-08-20T00:31:10.478Z,98059.42
2018-08-20T00:33:39.198Z,98065.63
2018-08-20T00:36:07.856Z,98057.59
2018-08-20T00:38:36.635Z,98058.88
2018-08-20T00:41:05.366Z,98050.87
2018-08-20T00:43:33.982Z,98059.89
2018-08-20T00:46:02.640Z,98061.97
2018-08-20T00:48:31.256Z,98061.39
2018-08-20T00:50:59.889Z,98064.77
2018-08-20T00:53:28.558Z,98053.31
2018-08-20T00:55:57.234Z,98057.25
2018-08-20T00:58:25.847Z,98053.84
2018-08-20T01:00:54.480Z,98059.19
2018-08-20T01:03:23.257Z,98058.84
2018-08-20T01:05:51.985Z,98059.48
2018-08-20T01:08:21.060Z,98060.23
2018-08-20T01:10:49.812Z,98062.98
2018-08-20T01:13:18.431Z,98051.09
2018-08-20T01:15:49.312Z,98048.40
2018-08-20T01:18:18.332Z,98049.55
2018-08-20T01:20:46.952Z,98049.55
2018-08-20T01:23:15.659Z,98037.80
2018-08-20T01:25:44.281Z,98049.63
2018-08-20T01:28:13.629Z,98051.80
2018-08-20T01:30:42.207Z,98051.42
2018-08-20T01:33:16.545Z,98051.77
2018-08-20T01:35:45.167Z,98051.67
2018-08-20T01:38:14.589Z,98055.43
2018-08-20T01:40:43.497Z,98051.67
2018-08-20T01:43:12.075Z,98057.19
2018-08-20T01:45:40.860Z,98063.80
2018-08-20T01:48:09.737Z,98060.40
2018-08-20T01:50:38.406Z,98062.44
2018-08-20T01:53:07.003Z,98057.31
2018-08-20T01:55:35.645Z,98053.27
2018-08-20T01:58:04.267Z,98056.00
2018-08-20T02:00:32.896Z,98049.42
2018-08-20T02:03:04.386Z,98050.00
2018-08-20T02:05:33.961Z,98051.23
2018-08-20T02:08:02.814Z,98054.92
2018-08-20T02:10:32.561Z,98057.24
2018-08-20T02:13:01.178Z,97939.61
2018-08-20T02:15:29.923Z,98050.78
2018-08-20T02:17:58.633Z,98049.98
2018-08-20T02:20:27.268Z,98050.91
2018-08-20T02:22:55.920Z,98057.99
2018-08-20T02:25:24.804Z,98055.48
2018-08-20T02:27:53.797Z,98052.58
2018-08-20T02:30:22.387Z,98057.95
2018-08-20T02:32:51.045Z,98052.68
2018-08-20T02:35:19.751Z,98056.70
2018-08-20T02:37:48.791Z,98054.80
2018-08-20T02:40:18.303Z,98052.19
2018-08-20T02:42:47.403Z,98050.95
2018-08-20T02:45:17.793Z,98056.54
2018-08-20T02:47:47.017Z,98053.11
2018-08-20T02:50:16.204Z,98049.23
2018-08-20T02:52:49.322Z,98046.84
2018-08-20T02:55:17.979Z,98042.57
2018-08-20T02:57:46.688Z,98052.55
2018-08-20T03:00:15.496Z,98046.05
2018-08-20T03:02:44.166Z,98042.40
2018-08-20T03:05:13.362Z,98041.05
2018-08-20T03:07:42.008Z,98043.03
2018-08-20T03:10:13.146Z,98048.52
2018-08-20T03:12:42.160Z,98047.31
2018-08-20T03:15:11.510Z,98041.86
2018-08-20T03:17:41.694Z,98043.91
2018-08-20T03:20:11.128Z,98045.50
2018-08-20T03:22:39.790Z,98045.95
2018-08-20T03:25:08.928Z,98045.27
2018-08-20T03:27:37.662Z,98049.82
2018-08-20T03:30:07.409Z,98054.59
2018-08-20T03:32:35.970Z,98052.55
2018-08-20T03:35:05.649Z,98052.80
2018-08-20T03:37:34.315Z,98049.31
2018-08-20T03:40:03.058Z,98057.39
2018-08-20T03:42:31.849Z,98060.02
2018-08-20T03:45:00.477Z,98059.80
2018-08-20T03:47:29.375Z,98058.34
2018-08-20T03:49:59.030Z,98061.08
2018-08-20T03:52:27.729Z,98058.77
2018-08-20T03:54:56.320Z,98062.30
2018-08-20T03:57:25.571Z,98054.70
2018-08-20T03:59:54.943Z,98056.98
2018-08-20T04:02:23.608Z,98054.59
2018-08-20T04:04:52.192Z,98056.55
2018-08-20T04:07:21.532Z,98048.81
2018-08-20T04:09:50.169Z,98055.41
2018-08-20T04:12:18.904Z,98051.77
2018-08-20T04:14:48.184Z,98050.63
2018-08-20T04:17:16.875Z,98056.44
2018-08-20T04:19:45.588Z,98055.77
2018-08-20T04:22:14.205Z,98059.05
2018-08-20T04:24:42.792Z,98051.09
2018-08-20T04:27:11.358Z,98058.03
2018-08-20T04:29:39.997Z,98051.33
2018-08-20T04:32:08.675Z,98052.57
2018-08-20T04:34:37.288Z,98049.97
2018-08-20T04:37:05.990Z,98051.56
2018-08-20T04:39:34.594Z,98055.88
2018-08-20T04:42:03.216Z,98054.52
2018-08-20T04:44:31.838Z,98055.43
2018-08-20T04:47:00.430Z,98052.68
2018-08-20T04:49:29.846Z,98047.91
2018-08-20T04:51:58.470Z,98041.88
2018-08-20T04:54:27.411Z,98047.92
2018-08-20T04:56:56.132Z,98041.31
2018-08-20T04:59:24.721Z,98045.18
2018-08-20T05:01:53.452Z,98045.08
2018-08-20T05:04:22.089Z,98047.91
2018-08-20T05:06:51.443Z,98044.94
2018-08-20T05:09:20.107Z,98042.55
2018-08-20T05:11:48.772Z,98043.81
2018-08-20T05:14:17.414Z,98046.40
2018-08-20T05:16:46.671Z,98049.02
2018-08-20T05:19:15.421Z,98044.02
2018-08-20T05:21:44.063Z,98050.02
2018-08-20T05:24:12.700Z,98048.88
2018-08-20T05:26:41.337Z,98051.30
2018-08-20T05:29:09.994Z,98060.02
2018-08-20T05:31:40.142Z,98065.81
2018-08-20T05:34:08.869Z,98065.66
2018-08-20T05:36:38.251Z,98066.91
2018-08-20T05:39:08.717Z,98064.05
2018-08-20T05:41:37.459Z,98068.96
2018-08-20T05:44:06.174Z,98067.69
2018-08-20T05:46:34.844Z,98069.80
2018-08-20T05:49:03.538Z,98072.70
2018-08-20T05:51:32.514Z,98081.40
2018-08-20T05:54:01.313Z,98079.56
2018-08-20T05:56:36.653Z,98079.69
2018-08-20T05:59:05.345Z,98079.13
2018-08-20T06:01:34.084Z,98078.22
2018-08-20T06:04:02.877Z,98078.75
2018-08-20T06:06:31.665Z,98079.56
2018-08-20T06:09:00.397Z,98081.33
2018-08-20T06:11:29.253Z,98084.84
2018-08-20T06:13:57.926Z,98082.20
2018-08-20T06:16:26.580Z,98089.15
2018-08-20T06:18:55.280Z,98090.58
2018-08-20T06:21:24.062Z,98090.93
2018-08-20T06:23:52.688Z,98089.02
2018-08-20T06:26:21.382Z,98084.06
2018-08-20T06:28:50.139Z,98098.41
2018-08-20T06:31:18.825Z,98095.13
2018-08-20T06:33:47.443Z,98096.93
2018-08-20T06:36:16.200Z,98091.92
2018-08-20T06:38:44.951Z,98099.37
2018-08-20T06:41:13.915Z,98095.97
2018-08-20T06:43:42.574Z,98091.12
2018-08-20T06:46:11.186Z,98084.38
2018-08-20T06:48:39.976Z,98090.41
2018-08-20T06:51:08.780Z,98086.77
2018-08-20T06:53:37.364Z,98087.41
2018-08-20T06:56:06.181Z,98092.64
2018-08-20T06:58:34.907Z,98091.83
2018-08-20T07:01:04.237Z,98092.09
2018-08-20T07:03:33.547Z,98091.41
2018-08-20T07:06:02.180Z,98086.81
2018-08-20T07:08:31.596Z,98092.56
2018-08-20T07:11:00.547Z,98090.38
2018-08-20T07:13:34.254Z,98092.09
2018-08-20T07:16:03.049Z,98096.75
2018-08-20T07:18:31.683Z,98092.93
2018-08-20T07:21:02.048Z,98086.92
2018-08-20T07:23:31.472Z,98092.54
2018-08-20T07:26:00.674Z,98095.02
2018-08-20T07:28:29.337Z,98092.98
2018-08-20T07:30:58.878Z,98091.66
2018-08-20T07:33:27.846Z,98093.47
2018-08-20T07:35:57.454Z,98097.47
2018-08-20T07:38:26.669Z,98096.28
2018-08-20T07:40:55.327Z,98101.88
2018-08-20T07:43:24.069Z,98098.98
2018-08-20T07:45:52.690Z,98102.31
2018-08-20T07:48:21.454Z,98100.15
2018-08-20T07:50:50.204Z,98104.53
2018-08-20T07:53:18.953Z,98104.80
2018-08-20T07:55:48.204Z,98104.56
2018-08-20T07:58:17.015Z,98104.48
2018-08-20T08:00:45.654Z,98109.15
2018-08-20T08:03:14.339Z,98109.52
2018-08-20T08:05:42.964Z,98116.20
2018-08-20T08:08:11.942Z,98114.45
2018-08-20T08:10:40.608Z,98110.23
2018-08-20T08:13:09.360Z,98107.48
2018-08-20T08:15:38.103Z,98102.64
2018-08-20T08:18:07.085Z,98102.98
2018-08-20T08:20:36.630Z,98101.34
2018-08-20T08:23:09.959Z,98103.26
2018-08-20T08:25:38.639Z,98099.12
2018-08-20T08:28:07.245Z,98100.40
2018-08-20T08:30:36.622Z,98095.26
2018-08-20T08:33:05.376Z,98099.67
2018-08-20T08:35:34.565Z,98099.27
2018-08-20T08:38:03.299Z,98101.54
2018-08-20T08:40:31.908Z,98096.70
2018-08-20T08:43:00.684Z,98096.55
2018-08-20T08:45:30.120Z,98092.10
2018-08-20T08:47:58.782Z,98095.47
2018-08-20T08:50:28.348Z,98087.24
2018-08-20T08:52:57.135Z,98094.03
2018-08-20T08:55:26.423Z,98089.10
2018-08-20T08:57:54.993Z,98089.34
2018-08-20T09:00:23.598Z,98085.29
2018-08-20T09:02:52.413Z,98089.30
2018-08-20T09:05:21.107Z,98084.03
2018-08-20T09:07:49.767Z,98086.42
2018-08-20T09:10:18.428Z,98089.97
2018-08-20T09:12:47.094Z,98083.28
2018-08-20T09:15:17.660Z,98088.03
2018-08-20T09:17:46.429Z,98084.67
2018-08-20T09:20:16.392Z,98090.22
2018-08-20T09:22:45.101Z,98086.67
2018-08-20T09:25:14.672Z,98085.28
2018-08-20T09:27:44.846Z,98086.47
2018-08-20T09:30:17.366Z,98087.44
2018-08-20T09:32:47.018Z,98083.46
2018-08-20T09:35:15.682Z,98074.95
2018-08-20T09:37:44.370Z,98082.45
2018-08-20T09:40:13.651Z,98083.80
2018-08-20T09:42:43.249Z,98084.78
2018-08-20T09:45:12.067Z,98080.70
2018-08-20T09:47:42.302Z,98087.20
2018-08-20T09:50:14.754Z,98084.00
2018-08-20T09:52:43.663Z,98076.25
2018-08-20T09:55:12.262Z,98071.53
2018-08-20T09:57:41.142Z,98077.55
2018-08-20T10:00:45.823Z,98076.28
2018-08-20T10:03:15.370Z,98075.32
2018-08-20T10:05:44.239Z,98074.19
2018-08-20T10:08:13.585Z,98068.49
2018-08-20T10:10:42.239Z,98074.97
2018-08-20T10:13:10.944Z,98074.72
2018-08-20T10:15:39.616Z,98064.86
2018-08-20T10:18:08.718Z,98069.73
2018-08-20T10:20:37.416Z,98061.30
2018-08-20T10:23:06.189Z,98061.62
2018-08-20T10:25:34.918Z,98062.95
2018-08-20T10:28:03.571Z,98052.73
2018-08-20T10:30:32.232Z,98054.56
2018-08-20T10:33:00.930Z,98053.05
2018-08-20T10:35:29.499Z,98048.59
2018-08-20T10:37:58.240Z,98058.27
2018-08-20T10:40:26.824Z,98054.85
2018-08-20T10:42:55.459Z,98056.08
2018-08-20T10:45:29.284Z,98050.47
2018-08-20T10:47:57.911Z,98054.90
2018-08-20T10:50:26.578Z,98049.51
2018-08-20T10:52:55.214Z,98050.28
2018-08-20T10:55:23.817Z,98053.80
2018-08-20T10:57:52.501Z,98049.26
2018-08-20T11:00:21.170Z,98040.51
2018-08-20T11:02:50.435Z,98042.30
2018-08-20T11:05:19.751Z,98045.88
2018-08-20T11:07:48.441Z,98042.16
2018-08-20T11:10:17.180Z,98036.64
2018-08-20T11:12:45.752Z,98038.59
2018-08-20T11:15:14.386Z,98035.88
2018-08-20T11:17:43.241Z,98033.38
2018-08-20T11:20:14.543Z,98037.83
2018-08-20T11:22:43.388Z,98035.66
2018-08-20T11:25:12.791Z,98029.19
2018-08-20T11:27:41.522Z,98036.64
2018-08-20T11:30:11.665Z,98027.89
2018-08-20T11:32:40.305Z,98032.33
2018-08-20T11:35:10.046Z,98026.40
2018-08-20T11:37:38.726Z,98028.70
2018-08-20T11:40:08.132Z,98022.29
2018-08-20T11:42:37.582Z,98014.00
2018-08-20T11:45:08.035Z,98006.94
2018-08-20T11:47:36.667Z,98012.08
2018-08-20T11:50:06.389Z,98010.53
2018-08-20T11:52:35.115Z,98008.06
2018-08-20T11:55:03.775Z,98000.28
2018-08-20T11:57:33.056Z,98002.88
2018-08-20T12:00:01.811Z,98000.89
2018-08-20T12:02:30.807Z,98001.45
2018-08-20T12:04:59.900Z,97998.89
2018-08-20T12:07:28.993Z,97993.75
2018-08-20T12:09:58.071Z,98000.03
2018-08-20T12:12:27.509Z,97991.93
2018-08-20T12:14:57.083Z,97991.75
2018-08-20T12:17:26.659Z,97984.10
2018-08-20T12:19:56.058Z,97984.20
2018-08-20T12:22:24.648Z,97978.20
2018-08-20T12:24:53.382Z,97983.91
2018-08-20T12:27:21.944Z,97971.98
2018-08-20T12:29:50.647Z,97970.41
2018-08-20T12:32:19.960Z,97962.03
2018-08-20T12:34:48.556Z,97963.91
2018-08-20T12:37:17.146Z,97962.56
2018-08-20T12:39:46.017Z,97957.58
2018-08-20T12:42:14.654Z,97959.47
2018-08-20T12:44:43.954Z,97957.60
2018-08-20T12:47:12.635Z,97958.41
2018-08-20T12:49:42.139Z,97950.87
2018-08-20T12:52:11.058Z,97945.34
2018-08-20T12:54:40.617Z,97940.67
2018-08-20T12:57:09.526Z,97941.10
2018-08-20T12:59:38.972Z,97938.91
2018-08-20T13:02:07.616Z,97941.59
2018-08-20T13:04:36.854Z,97936.77
2018-08-20T13:07:06.375Z,97942.28
2018-08-20T13:09:35.079Z,97937.62
2018-08-20T13:12:03.696Z,97937.86
2018-08-20T13:14:32.347Z,97925.38
2018-08-20T13:17:01.540Z,97921.34
2018-08-20T13:19:30.954Z,97922.17
2018-08-20T13:21:59.549Z,97922.80
2018-08-20T13:24:28.252Z,97919.95
2018-08-20T13:26:56.869Z,97925.14
2018-08-20T13:29:25.702Z,97921.64
2018-08-20T13:31:55.191Z,97924.08
2018-08-20T13:34:24.018Z,97921.48
2018-08-20T13:36:53.548Z,97916.65
2018-08-20T13:39:22.209Z,97913.86
2018-08-20T13:41:50.916Z,97919.41
2018-08-20T13:44:19.568Z,97916.53
2018-08-20T13:46:48.329Z,97903.02
2018-08-20T13:49:16.962Z,97902.52
2018-08-20T13:51:45.725Z,97900.36
2018-08-20T13:54:14.330Z,97901.62
2018-08-20T13:56:43.402Z,97898.70
2018-08-20T13:59:12.584Z,97902.34
2018-08-20T14:01:41.769Z,97902.83
2018-08-20T14:04:10.385Z,97899.54
2018-08-20T14:06:39.245Z,97897.73
2018-08-20T14:09:09.593Z,97891.90
2018-08-20T14:11:38.310Z,97897.45
2018-08-20T14:14:07.498Z,97892.48
2018-08-20T14:16:36.177Z,97892.05
2018-08-20T14:19:05.250Z,97890.96
2018-08-20T14:21:33.837Z,97889.19
2018-08-20T14:24:02.530Z,97883.12
2018-08-20T14:26:31.975Z,97885.07
2018-08-20T14:29:00.644Z,97879.44
2018-08-20T14:31:29.549Z,97880.30
2018-08-20T14:33:58.215Z,97883.44
2018-08-20T14:36:27.010Z,97882.48
2018-08-20T14:38:55.733Z,97881.46
2018-08-20T14:41:24.795Z,97885.99
2018-08-20T14:43:53.900Z,97880.36
2018-08-20T14:46:23.660Z,97883.77
2018-08-20T14:48:53.710Z,97895.41
2018-08-20T14:51:22.477Z,97887.84
2018-08-20T14:53:51.468Z,97892.20
2018-08-20T14:56:20.898Z,97892.38
2018-08-20T14:58:49.552Z,97889.71
2018-08-20T15:01:18.380Z,97888.77
2018-08-20T15:03:47.293Z,97892.20
2018-08-20T15:06:15.953Z,97896.42
2018-08-20T15:08:44.587Z,97886.36
2018-08-20T15:11:13.379Z,97879.97
2018-08-20T15:13:42.036Z,97881.94
2018-08-20T15:16:10.706Z,97878.48
2018-08-20T15:18:39.318Z,97881.53
2018-08-20T15:21:07.944Z,97878.86
2018-08-20T15:23:36.589Z,97880.44
2018-08-20T15:26:05.226Z,97875.03
2018-08-20T15:28:33.807Z,97880.75
2018-08-20T15:31:02.479Z,97882.23
2018-08-20T15:33:31.504Z,97878.86
2018-08-20T15:36:00.285Z,97883.03
2018-08-20T15:38:28.961Z,97877.81
2018-08-20T15:40:57.683Z,97876.67
2018-08-20T15:43:26.393Z,97880.77
2018-08-20T15:45:55.375Z,97875.28
2018-08-20T15:48:24.008Z,97871.35
2018-08-20T15:50:52.652Z,97882.02
2018-08-20T15:53:21.499Z,97881.38
2018-08-20T15:55:50.236Z,97874.91
2018-08-20T15:58:18.946Z,97880.23
2018-08-20T16:00:48.295Z,97881.13
2018-08-20T16:03:17.212Z,97881.38
2018-08-20T16:05:45.861Z,97887.66
2018-08-20T16:08:15.178Z,97883.73
2018-08-20T16:10:43.980Z,97878.27
2018-08-20T16:13:12.578Z,97888.35
2018-08-20T16:15:41.594Z,97883.39
2018-08-20T16:18:10.236Z,97888.19
2018-08-20T16:20:39.056Z,97891.61
2018-08-20T16:23:08.672Z,97880.38
2018-08-20T16:25:37.760Z,97860.87
2018-08-20T16:28:10.726Z,97888.84
2018-08-20T16:30:39.381Z,97881.90
2018-08-20T16:33:08.243Z,97873.61
2018-08-20T16:35:36.897Z,97873.89
2018-08-20T16:38:05.857Z,97874.34
2018-08-20T16:40:34.617Z,97871.11
2018-08-20T16:43:04.545Z,97869.60
2018-08-20T16:45:33.367Z,97874.87
2018-08-20T16:48:02.689Z,97872.23
2018-08-20T16:50:32.013Z,97874.37
2018-08-20T16:53:00.835Z,97876.82
2018-08-20T16:55:29.636Z,97879.21
2018-08-20T16:57:58.623Z,97843.01
2018-08-20T17:00:28.029Z,97869.09
2018-08-20T17:02:57.376Z,97872.62
2018-08-20T17:05:33.218Z,97867.70
2018-08-20T17:08:02.350Z,97871.98
2018-08-20T17:10:30.972Z,97871.31
2018-08-20T17:12:59.838Z,97874.73
2018-08-20T17:15:29.064Z,97879.23
2018-08-20T17:17:57.721Z,97880.22
2018-08-20T17:20:26.578Z,97853.39
2018-08-20T17:23:05.591Z,97877.23
2018-08-20T17:25:34.280Z,97884.67
2018-08-20T17:28:03.462Z,97879.00
2018-08-20T17:30:32.275Z,97878.54
2018-08-20T17:33:00.887Z,97883.29
2018-08-20T17:35:29.607Z,97881.48
2018-08-20T17:38:01.632Z,97886.30
2018-08-20T17:40:30.401Z,97883.89
2018-08-20T17:42:59.225Z,97890.83
2018-08-20T17:45:28.833Z,97887.97
2018-08-20T17:47:57.546Z,97887.41
2018-08-20T17:50:41.342Z,97892.56
2018-08-20T17:53:11.801Z,97896.86
2018-08-20T17:55:41.564Z,97896.83
2018-08-20T17:58:10.601Z,97901.21
2018-08-20T18:00:44.942Z,97896.35
2018-08-20T18:03:22.207Z,97898.95
2018-08-20T18:05:57.144Z,97904.61
2018-08-20T18:08:27.185Z,97899.78
2018-08-20T18:10:55.985Z,97905.48
2018-08-20T18:13:42.351Z,97910.46
2018-08-20T18:16:12.266Z,97910.16
2018-08-20T18:18:42.469Z,97914.45
2018-08-20T18:21:11.217Z,97911.44
2018-08-20T18:23:40.669Z,97912.63
2018-08-20T18:26:09.544Z,97915.84
2018-08-20T18:28:45.330Z,97912.44
2018-08-20T18:31:21.371Z,97913.42
2018-08-20T18:33:50.169Z,97918.95
2018-08-20T18:36:22.840Z,97922.55
2018-08-20T18:38:55.349Z,97919.53
2018-08-20T18:42:33.546Z,97923.47
2018-08-20T18:45:02.413Z,97939.50
2018-08-20T18:47:31.106Z,97937.95
2018-08-20T18:50:00.083Z,97944.24
2018-08-20T18:52:29.821Z,97940.55
2018-08-20T18:54:59.401Z,97948.67
2018-08-20T18:57:32.581Z,97960.31
2018-08-20T19:00:03.036Z,97950.61
2018-08-20T19:02:38.286Z,97955.16
2018-08-20T19:05:09.321Z,97959.53
2018-08-20T19:07:38.092Z,97961.87
2018-08-20T19:10:10.464Z,97967.81
2018-08-20T19:12:39.191Z,97970.19
2018-08-20T19:15:45.083Z,97970.38
2018-08-20T19:18:17.939Z,97975.91
2018-08-20T19:20:48.503Z,97974.92
2018-08-20T19:23:21.258Z,97975.32
2018-08-20T19:25:56.854Z,97977.68
2018-08-20T19:28:25.938Z,97975.91
2018-08-20T19:30:55.929Z,97977.11
2018-08-20T19:33:27.127Z,97985.20
2018-08-20T19:35:56.588Z,97980.46
2018-08-20T19:38:25.779Z,97985.79
2018-08-20T19:41:03.908Z,97983.02
2018-08-20T19:43:48.170Z,97976.52
2018-08-20T19:46:28.116Z,97980.84
2018-08-20T19:49:02.115Z,97978.06
2018-08-20T19:51:32.229Z,97976.09
2018-08-20T19:54:00.977Z,97977.47
2018-08-20T19:56:29.848Z,97976.86
2018-08-20T19:58:58.537Z,97981.80
2018-08-20T20:01:27.330Z,97982.58
2018-08-20T20:03:56.129Z,97980.18
2018-08-20T20:06:25.711Z,97984.31
2018-08-20T20:08:54.393Z,97984.68
2018-08-20T20:11:28.090Z,97985.25
2018-08-20T20:14:01.692Z,97991.16
2018-08-20T20:16:40.791Z,97987.94
2018-08-20T20:19:10.143Z,97995.03
2018-08-20T20:21:39.201Z,97992.08
2018-08-20T20:24:08.547Z,98005.05
2018-08-20T20:26:37.372Z,97999.67
2018-08-20T20:29:07.756Z,98006.58
2018-08-20T20:31:37.074Z,98008.09
2018-08-20T20:34:05.832Z,98003.17
2018-08-20T20:36:35.391Z,98005.08
2018-08-20T20:39:05.612Z,98006.08
2018-08-20T20:41:34.437Z,98009.98
2018-08-20T20:44:04.018Z,98011.92
2018-08-20T20:46:32.753Z,98018.75
2018-08-20T20:49:01.493Z,98015.38
2018-08-20T20:51:30.283Z,98018.46
2018-08-20T20:53:59.106Z,98016.32
2018-08-20T20:56:27.752Z,98018.49
2018-08-20T20:58:56.525Z,98027.90
2018-08-20T21:01:25.836Z,98023.53
2018-08-20T21:03:54.551Z,98019.53
2018-08-20T21:06:23.160Z,98034.58
2018-08-20T21:08:52.448Z,98023.73
2018-08-20T21:11:22.278Z,98021.77
2018-08-20T21:13:50.950Z,98024.52
2018-08-20T21:16:23.489Z,98022.11
2018-08-20T21:18:53.627Z,98020.34
2018-08-20T21:21:22.876Z,98023.84
2018-08-20T21:23:51.575Z,98023.29
2018-08-20T21:26:20.308Z,98024.17
2018-08-20T21:28:50.158Z,98019.87
2018-08-20T21:31:20.252Z,98022.63
2018-08-20T21:33:49.570Z,98028.77
2018-08-20T21:36:18.176Z,98033.09
2018-08-20T21:38:46.840Z,98037.18
2018-08-20T21:41:15.468Z,98030.26
2018-08-20T21:43:47.853Z,98033.76
2018-08-20T21:46:16.947Z,98031.87
2018-08-20T21:48:46.062Z,98035.33
2018-08-20T21:51:17.171Z,98039.28
2018-08-20T21:53:45.787Z,98037.33
2018-08-20T21:56:14.818Z,98044.00
2018-08-20T21:58:44.266Z,98044.10
2018-08-20T22:01:14.464Z,98041.63
2018-08-20T22:03:43.529Z,98048.45
2018-08-20T22:06:12.830Z,98051.79
2018-08-20T22:08:41.943Z,98045.66
2018-08-20T22:11:11.509Z,98049.89
2018-08-20T22:13:40.257Z,98057.30
2018-08-20T22:16:18.506Z,98058.98
2018-08-20T22:18:49.537Z,98069.28
2018-08-20T22:21:18.835Z,98069.02
2018-08-20T22:23:47.945Z,98067.59
2018-08-20T22:26:18.330Z,98071.37
2018-08-20T22:28:48.967Z,98069.85
2018-08-20T22:31:17.785Z,98066.23
2018-08-20T22:33:55.571Z,98068.77
2018-08-20T22:36:24.892Z,98073.45
2018-08-20T22:38:55.900Z,98073.13
2018-08-20T22:41:25.613Z,98075.56
2018-08-20T22:43:54.388Z,98075.27
2018-08-20T22:46:24.279Z,98075.63
2018-08-20T22:48:54.417Z,98077.52
2018-08-20T22:51:24.559Z,98082.64
2018-08-20T22:53:58.183Z,98091.46
2018-08-20T22:56:29.301Z,98089.08
2018-08-20T22:59:00.279Z,98094.44
2018-08-20T23:01:29.050Z,98097.37
2018-08-20T23:03:57.921Z,98092.97
2018-08-20T23:06:27.343Z,98099.70
2018-08-20T23:08:56.008Z,98092.36
2018-08-20T23:11:40.006Z,98095.55
2018-08-20T23:14:10.496Z,98087.97
2018-08-20T23:16:39.632Z,98091.08
2018-08-20T23:19:08.667Z,98091.95
2018-08-20T23:21:41.335Z,98094.11
2018-08-20T23:24:10.749Z,98090.50
2018-08-20T23:26:39.452Z,98091.15
2018-08-20T23:29:08.296Z,98097.66
2018-08-20T23:31:37.213Z,98101.14
2018-08-20T23:34:08.627Z,98100.61
2018-08-20T23:36:37.552Z,98098.59
2018-08-20T23:39:09.222Z,98101.14
2018-08-20T23:41:38.019Z,98103.02
2018-08-20T23:44:07.284Z,98105.91
2018-08-20T23:46:39.301Z,98102.16
2018-08-20T23:49:07.940Z,98106.27
2018-08-20T23:51:36.592Z,98103.96
2018-08-20T23:54:05.310Z,98114.78
2018-08-20T23:56:33.950Z,98110.77
2018-08-20T23:59:02.528Z,98099.14
